Buena Vista, Wisconsin
Current Conditions -  °F | °C
As of 6:55 PM on Saturday 22 Nov 2014 (Local Time) from KSTE Reporting Station
Haze Haze  
Wind Chill: -2°   Ceiling: 300
Heat Index:   Visibility: 1mi
Dew Point:   Wind: 7mph
Humidity: 99%   Direction: 190°S
Pressure: 29.75"   Gusts: NA
Location:  44.4117°N, 89.5378°W
Report Text: KSTE 230055Z AUTO 19006KT 1SM BR OVC003 02/01 A2975 RMK AO2 T00150014
Loading
Personal Weather Stations






























Interactive Weather Map New forecast layout! Learn more

10-Day Weather Forecast

Advertisements
Track Severe Weather on mobile